Flight Track Log - Related Links

Times and Time Zones

All times are in EDT time to prevent confusion due to time zone crossing. See the AAY876 flight status page for this flight to view local times or setup timezone preferences in your user account.

Time Position Orientation Groundspeed Altitude Reporting Facility
EDT Latitude Longitude Course Direction KTS MPH feet Rate Location/Type
Sat 03:49:13 PM 27.9333 -82.7000 24° Northeast 157 181 900  Level Tampa TRACON
Sat 03:50:07 PM 27.9667 -82.6833 North 210 242 2,100 1,541 Climbing Tampa TRACON
Sat 03:51:02 PM 28.0333 -82.6667 12° North 275 316 3,700 1,774 Climbing Tampa TRACON
Sat 03:52:02 PM 28.1000 -82.6833 348° North 268 308 5,500 1,987 Climbing Tampa TRACON
Sat 03:53:33 PM 28.2144 -82.6922 356° North 283 326 8,700 2,265 Climbing Jacksonville Center
Sat 03:54:33 PM 28.2958 -82.7017 354° North 289 333 11,200 1,950 Climbing Jacksonville Center
Sat 03:55:33 PM 28.3794 -82.7133 353° North 294 338 12,600 1,150 Climbing Jacksonville Center
Sat 03:56:33 PM 28.4753 -82.7392 347° North 318 366 13,500 1,350 Climbing Jacksonville Center
Sat 03:57:33 PM 28.5819 -82.7697 346° North 358 412 15,300 1,950 Climbing Jacksonville Center
Sat 03:58:33 PM 28.6903 -82.7978 347° North 383 441 17,400 1,900 Climbing Jacksonville Center
Sat 03:59:33 PM 28.8011 -82.8261 347° North 397 457 19,100 1,750 Climbing Jacksonville Center
Sat 04:00:33 PM 28.9117 -82.8594 345° North 402 463 20,900 1,600 Climbing Jacksonville Center
Sat 04:01:33 PM 29.0264 -82.8903 347° North 407 468 22,300 1,600 Climbing Jacksonville Center
Sat 04:02:33 PM 29.1392 -82.9211 347° North 414 476 24,100 1,700 Climbing Jacksonville Center
Sat 04:03:33 PM 29.2497 -82.9519 346° North 414 476 25,700 1,550 Climbing Jacksonville Center
Sat 04:04:33 PM 29.3603 -82.9808 347° North 414 476 27,200 1,500 Climbing Jacksonville Center
Sat 04:05:33 PM 29.4689 -83.0119 346° North 408 470 28,700 1,200 Climbing Jacksonville Center
Sat 04:06:33 PM 29.5817 -83.0456 345° North 414 476 29,600 600 Climbing Jacksonville Center
Sat 04:07:33 PM 29.6839 -83.0911 339° North 402 463 29,900 450 Climbing Jacksonville Center
Sat 04:08:33 PM 29.7861 -83.1367 339° North 395 455 30,500 750 Climbing Jacksonville Center
Sat 04:09:33 PM 29.8883 -83.1847 338° Northwest 390 449 31,400 700 Climbing Jacksonville Center
Sat 04:10:33 PM 29.9842 -83.2283 338° Northwest 390 449 31,900 250 Climbing Jacksonville Center
Sat 04:11:33 PM 30.0969 -83.2792 339° North 390 449 31,900  Level Jacksonville Center
Sat 04:12:33 PM 30.1969 -83.3253 338° Northwest 390 449 31,900  Level Jacksonville Center
Sat 04:13:33 PM 30.2969 -83.3714 338° Northwest 390 449 31,900  Level Jacksonville Center
Sat 04:14:33 PM 30.3950 -83.4175 338° Northwest 390 449 31,900  Level Jacksonville Center
Sat 04:15:33 PM 30.4950 -83.4664 337° Northwest 385 443 31,900  Level Jacksonville Center
Sat 04:16:33 PM 30.5950 -83.5128 338° Northwest 385 443 31,900  Level Jacksonville Center
Sat 04:17:33 PM 30.6969 -83.5642 337° Northwest 390 449 31,900 50 Level Jacksonville Center
Sat 04:18:33 PM 30.7989 -83.6108 339° North 390 449 32,000 50 Climbing Jacksonville Center
Sat 04:19:33 PM 30.9011 -83.6600 338° Northwest 390 449 32,000  Level Jacksonville Center
Sat 04:20:33 PM 31.0050 -83.7094 338° Northwest 390 449 32,000  Level Jacksonville Center
Sat 04:21:33 PM 31.1092 -83.7589 338° Northwest 390 449 32,000  Level Jacksonville Center
Sat 04:22:33 PM 31.2111 -83.8083 337° Northwest 390 449 32,000  Level Jacksonville Center
Sat 04:24:52 PM 31.4378 -83.9172 338° Northwest 391 450 32,000  Level Atlanta Center
Sat 04:25:52 PM 31.5378 -83.9633 339° North 391 450 32,000  Level Atlanta Center
Sat 04:26:52 PM 31.6547 -83.9925 348° North 386 444 32,000  Level Atlanta Center
Sat 04:27:52 PM 31.7611 -84.0119 351° North 381 438 32,000  Level Atlanta Center
Sat 04:28:52 PM 31.8656 -84.0339 350° North 381 438 32,000  Level Atlanta Center
Sat 04:29:52 PM 31.9719 -84.0583 349° North 381 438 32,000  Level Atlanta Center
Sat 04:30:52 PM 32.0783 -84.0806 350° North 381 438 32,000  Level Atlanta Center
Sat 04:31:52 PM 32.1828 -84.1050 349° North 381 438 32,000  Level Atlanta Center
Sat 04:32:52 PM 32.2914 -84.1297 349° North 381 438 32,000  Level Atlanta Center
Sat 04:33:52 PM 32.3956 -84.1519 350° North 386 444 32,000  Level Atlanta Center
Sat 04:34:52 PM 32.5022 -84.1767 349° North 386 444 32,000  Level Atlanta Center
Sat 04:35:52 PM 32.6064 -84.2017 349° North 386 444 32,000  Level Atlanta Center
Sat 04:36:52 PM 32.7150 -84.2239 350° North 392 451 32,000  Level Atlanta Center
Sat 04:37:52 PM 32.8192 -84.2514 347° North 387 445 32,000  Level Atlanta Center
Sat 04:38:52 PM 32.9278 -84.2739 350° North 387 445 32,000  Level Atlanta Center
Sat 04:39:52 PM 33.0322 -84.2989 349° North 387 445 32,000  Level Atlanta Center
Sat 04:40:52 PM 33.1364 -84.3217 350° North 385 443 32,000  Level Atlanta Center
Sat 04:41:52 PM 33.2450 -84.3469 349° North 385 443 32,000  Level Atlanta Center
Sat 04:42:52 PM 33.3492 -84.3694 350° North 385 443 32,000  Level Atlanta Center
Sat 04:43:53 PM 33.4556 -84.3947 349° North 385 443 32,000  Level Atlanta Center
Sat 04:44:52 PM 33.5494 -84.4178 348° North 390 449 32,000  Level Atlanta Center
Sat 04:45:52 PM 33.6706 -84.4456 349° North 390 449 32,000  Level Atlanta Center
Sat 04:46:52 PM 33.7683 -84.4711 348° North 388 447 32,000  Level Atlanta Center
Sat 04:47:52 PM 33.8747 -84.4967 349° North 388 447 32,000  Level Atlanta Center
Sat 04:48:52 PM 33.9833 -84.5222 349° North 382 440 32,000  Level Atlanta Center
Sat 04:49:52 PM 34.0769 -84.5453 348° North 382 440 32,000  Level Atlanta Center
Sat 04:50:52 PM 34.1981 -84.5739 349° North 393 452 32,000  Level Atlanta Center
Sat 04:51:52 PM 34.3064 -84.5997 349° North 393 452 32,000  Level Atlanta Center
Sat 04:52:52 PM 34.4003 -84.6228 349° North 393 452 32,000  Level Atlanta Center
Sat 04:53:52 PM 34.5108 -84.6489 349° North 393 452 32,000  Level Atlanta Center
Sat 04:54:52 PM 34.6192 -84.6747 349° North 393 452 32,000  Level Atlanta Center
Sat 04:55:52 PM 34.7275 -84.7061 347° North 393 452 32,000  Level Atlanta Center
Sat 04:56:52 PM 34.8358 -84.7322 349° North 393 452 32,000  Level Atlanta Center
Sat 04:57:52 PM 34.9464 -84.7608 348° North 393 452 32,000  Level Atlanta Center
Sat 04:58:52 PM 35.0589 -84.7872 349° North 393 452 32,000  Level Atlanta Center
Sat 04:59:52 PM 35.1714 -84.8164 348° North 398 458 32,000  Level Atlanta Center
Sat 05:00:52 PM 35.2817 -84.8428 349° North 398 458 32,000  Level Atlanta Center
Sat 05:01:52 PM 35.3942 -84.8719 348° North 403 464 32,000  Level Atlanta Center
Sat 05:02:52 PM 35.5067 -84.9011 348° North 409 471 32,000  Level Atlanta Center
Sat 05:03:52 PM 35.6192 -84.9278 349° North 409 471 32,000  Level Atlanta Center
Sat 05:04:52 PM 35.7294 -84.9572 348° North 409 471 32,000  Level Atlanta Center
Sat 05:05:52 PM 35.8564 -84.9867 349° North 414 476 32,000  Level Atlanta Center
Sat 05:08:13 PM 36.1125 -85.0539 348° North 424 488 32,000  Level Indianapolis Center
Sat 05:09:16 PM 36.2308 -85.0842 348° North 430 495 32,000  Level Indianapolis Center
Sat 05:10:17 PM 36.3481 -85.1142 348° North 430 495 32,000  Level Indianapolis Center
Sat 05:11:19 PM 36.4872 -85.1506 348° North 428 493 32,000  Level Indianapolis Center
Sat 05:12:19 PM 36.6036 -85.1811 348° North 428 493 32,000  Level Indianapolis Center
Sat 05:13:20 PM 36.7192 -85.2117 348° North 427 491 32,000  Level Indianapolis Center
Sat 05:14:23 PM 36.8361 -85.2417 348° North 427 491 32,000  Level Indianapolis Center
Sat 05:15:24 PM 36.9542 -85.2733 348° North 429 494 32,000  Level Indianapolis Center
Sat 05:16:24 PM 37.0772 -85.3039 349° North 434 499 32,000  Level Indianapolis Center
Sat 05:17:29 PM 37.1956 -85.3364 348° North 434 499 32,000  Level Indianapolis Center
Sat 05:18:30 PM 37.3147 -85.3681 348° North 434 499 32,000  Level Indianapolis Center
Sat 05:19:29 PM 37.4336 -85.3994 348° North 434 499 32,000  Level Indianapolis Center
Sat 05:20:33 PM 37.5650 -85.4581 341° North 433 498 32,000  Level Indianapolis Center
Sat 05:21:33 PM 37.6753 -85.5181 337° Northwest 432 497 32,000  Level Indianapolis Center
Sat 05:22:34 PM 37.7933 -85.5783 338° Northwest 432 497 32,000  Level Indianapolis Center
Sat 05:23:37 PM 37.9050 -85.6353 338° Northwest 432 497 32,000  Level Indianapolis Center
Sat 05:24:38 PM 38.0164 -85.6931 338° Northwest 432 497 32,000  Level Indianapolis Center
Sat 05:25:39 PM 38.1278 -85.7522 337° Northwest 432 497 32,000  Level Indianapolis Center
Sat 05:26:43 PM 38.2400 -85.8128 337° Northwest 434 499 32,000  Level Indianapolis Center
Sat 05:27:45 PM 38.3533 -85.8706 338° Northwest 434 499 32,000  Level Indianapolis Center
Sat 05:28:45 PM 38.4669 -85.9314 337° Northwest 438 504 32,000  Level Indianapolis Center
Sat 05:29:46 PM 38.5706 -86.0117 329° Northwest 437 503 32,000  Level Indianapolis Center
Sat 05:30:50 PM 38.6953 -86.1106 328° Northwest 438 504 32,000  Level Indianapolis Center
Sat 05:31:50 PM 38.7978 -86.1936 328° Northwest 438 504 32,000  Level Indianapolis Center
Sat 05:32:51 PM 38.9033 -86.2783 328° Northwest 438 504 32,000  Level Indianapolis Center
Sat 05:33:54 PM 39.0078 -86.3625 328° Northwest 438 504 32,000  Level Indianapolis Center
Sat 05:34:55 PM 39.1111 -86.4461 328° Northwest 438 504 32,000  Level Indianapolis Center
Sat 05:35:58 PM 39.2150 -86.5292 328° Northwest 438 504 32,000  Level Indianapolis Center
Sat 05:37:00 PM 39.3186 -86.6147 327° Northwest 438 504 32,000  Level Indianapolis Center
Sat 05:38:00 PM 39.4222 -86.6997 328° Northwest 438 504 32,000  Level Indianapolis Center
Sat 05:39:01 PM 39.5261 -86.7853 328° Northwest 438 504 32,000  Level Indianapolis Center
Sat 05:40:05 PM 39.6297 -86.8708 328° Northwest 438 504 32,000  Level Indianapolis Center
Sat 05:41:06 PM 39.7531 -86.9736 327° Northwest 438 504 32,000  Level Indianapolis Center
Sat 05:42:06 PM 39.8556 -87.0575 328° Northwest 438 504 32,000  Level Indianapolis Center
Sat 05:43:09 PM 39.9583 -87.1444 327° Northwest 437 503 32,000  Level Indianapolis Center
Sat 05:44:10 PM 40.0600 -87.2300 327° Northwest 437 503 32,000  Level Indianapolis Center
Sat 05:45:11 PM 40.1631 -87.3167 327° Northwest 437 503 32,000  Level Indianapolis Center
Sat 05:45:52 PM 40.2244 -87.3686 327° Northwest 438 504 32,000  Level Chicago Center
Sat 05:46:54 PM 40.3406 -87.4681 327° Northwest 440 506 32,000  Level Chicago Center
Sat 05:47:56 PM 40.4292 -87.5778 317° Northwest 439 505 32,000  Level Chicago Center
Sat 05:48:58 PM 40.5147 -87.6911 315° West 438 504 32,000  Level Chicago Center
Sat 05:50:00 PM 40.6000 -87.8056 314° West 438 504 32,000  Level Chicago Center
Sat 05:51:01 PM 40.7028 -87.9394 315° West 436 502 32,000  Level Chicago Center
Sat 05:52:03 PM 40.7875 -88.0547 314° West 436 502 32,000  Level Chicago Center
Sat 05:53:05 PM 40.8736 -88.1669 315° West 435 501 32,000  Level Chicago Center
Sat 05:54:07 PM 40.9586 -88.2819 314° West 435 501 32,000 -488 Level Chicago Center
Sat 05:55:08 PM 41.0419 -88.3936 315° West 427 491 31,000 -1,610 Descending Chicago Center
Sat 05:56:10 PM 41.1217 -88.5008 315° West 413 475 28,700 -2,177 Descending Chicago Center
Sat 05:57:12 PM 41.2028 -88.6122 314° West 415 478 26,500 -2,177 Descending Chicago Center
Sat 05:58:14 PM 41.2883 -88.7275 315° West 429 494 24,200 -2,226 Descending Chicago Center
Sat 05:59:16 PM 41.3722 -88.8436 314° West 432 497 21,900 -2,488 Descending Chicago Center
Sat 06:00:17 PM 41.4706 -88.9767 315° West 425 489 19,100 -2,390 Descending Chicago Center
Sat 06:01:19 PM 41.5472 -89.0836 314° West 407 468 17,000 -2,129 Descending Chicago Center
Sat 06:02:21 PM 41.6206 -89.1861 314° West 389 448 14,700 -1,935 Descending Chicago Center
Sat 06:03:23 PM 41.6953 -89.2797 317° Northwest 372 428 13,000 -1,415 Descending Chicago Center
Sat 06:04:24 PM 41.7872 -89.2889 356° North 348 400 11,800 -1,463 Descending Chicago Center
Sat 06:05:26 PM 41.8731 -89.2606 14° North 318 366 10,000 -1,935 Descending Chicago Center
Sat 06:06:28 PM 41.9550 -89.2361 13° North 306 352 7,800 -2,195 Descending Chicago Center
Sat 06:07:29 PM 42.0517 -89.2097 11° North 298 343 5,500 -1,902 Descending Chicago Center
Sat 06:08:31 PM 42.1114 -89.2083 North 270 311 3,900 -968 Descending Chicago Center
Sat 06:09:33 PM 42.2033 -89.3122 320° Northwest 303 349 3,500 -387 Descending Chicago Center
Sat 06:11:00 PM 42.1954 -89.0972 93° East  Level Estimated

Login

Don't have an account? Register now (free) for customized features, flight alerts, and more!